sensor_id;sensor_type;location;lat;lon;timestamp;pressure;altitude;pressure_sealevel;temperature;humidity
71567;BME280;59403;47.456;19.120;2022-11-15T00:01:34;100964.91;;;4.48;100.00
71567;BME280;59403;47.456;19.120;2022-11-15T00:04:02;100961.97;;;4.52;100.00
71567;BME280;59403;47.456;19.120;2022-11-15T00:06:29;100957.34;;;4.43;100.00
71567;BME280;59403;47.456;19.120;2022-11-15T00:08:59;100949.47;;;4.43;100.00
71567;BME280;59403;47.456;19.120;2022-11-15T00:11:26;100942.25;;;4.47;100.00
71567;BME280;59403;47.456;19.120;2022-11-15T00:13:54;100948.97;;;4.51;100.00
71567;BME280;59403;47.456;19.120;2022-11-15T00:16:22;100916.22;;;4.31;100.00
71567;BME280;59403;47.456;19.120;2022-11-15T00:18:50;100942.97;;;4.49;100.00
71567;BME280;59403;47.456;19.120;2022-11-15T00:21:17;100947.09;;;4.53;100.00
71567;BME280;59403;47.456;19.120;2022-11-15T00:23:44;100948.44;;;4.58;100.00
71567;BME280;59403;47.456;19.120;2022-11-15T00:26:14;100944.97;;;4.58;100.00
71567;BME280;59403;47.456;19.120;2022-11-15T00:28:41;100938.66;;;4.60;100.00
71567;BME280;59403;47.456;19.120;2022-11-15T00:31:11;100950.00;;;4.61;100.00
71567;BME280;59403;47.456;19.120;2022-11-15T00:33:38;100948.53;;;4.70;100.00
71567;BME280;59403;47.456;19.120;2022-11-15T00:36:07;100945.50;;;4.76;100.00
71567;BME280;59403;47.456;19.120;2022-11-15T00:38:36;100934.69;;;4.68;100.00
71567;BME280;59403;47.456;19.120;2022-11-15T00:41:04;100937.22;;;4.69;100.00
71567;BME280;59403;47.456;19.120;2022-11-15T00:43:33;100933.31;;;4.75;100.00
71567;BME280;59403;47.456;19.120;2022-11-15T00:46:00;100937.75;;;4.74;100.00
71567;BME280;59403;47.456;19.120;2022-11-15T00:48:27;100935.75;;;4.78;100.00
71567;BME280;59403;47.456;19.120;2022-11-15T00:50:54;100926.72;;;4.69;100.00
71567;BME280;59403;47.456;19.120;2022-11-15T00:53:21;100920.75;;;4.67;100.00
71567;BME280;59403;47.456;19.120;2022-11-15T00:55:48;100921.37;;;4.71;100.00
71567;BME280;59403;47.456;19.120;2022-11-15T00:58:15;100922.63;;;4.78;100.00
71567;BME280;59403;47.456;19.120;2022-11-15T01:00:43;100921.78;;;4.77;100.00
71567;BME280;59403;47.456;19.120;2022-11-15T01:03:10;100916.09;;;4.83;100.00
71567;BME280;59403;47.456;19.120;2022-11-15T01:05:37;100915.66;;;4.89;100.00
71567;BME280;59403;47.456;19.120;2022-11-15T01:08:04;100912.94;;;4.91;100.00
71567;BME280;59403;47.456;19.120;2022-11-15T01:10:31;100911.47;;;4.87;100.00
71567;BME280;59403;47.456;19.120;2022-11-15T01:12:58;100915.16;;;4.84;100.00
71567;BME280;59403;47.456;19.120;2022-11-15T01:15:25;100914.63;;;4.92;100.00
71567;BME280;59403;47.456;19.120;2022-11-15T01:17:53;100912.00;;;4.92;100.00
71567;BME280;59403;47.456;19.120;2022-11-15T01:20:20;100913.56;;;4.94;100.00
71567;BME280;59403;47.456;19.120;2022-11-15T01:22:47;100907.25;;;4.97;100.00
71567;BME280;59403;47.456;19.120;2022-11-15T01:25:14;100893.41;;;4.95;100.00
71567;BME280;59403;47.456;19.120;2022-11-15T01:27:41;100887.53;;;4.91;100.00
71567;BME280;59403;47.456;19.120;2022-11-15T01:30:09;100890.66;;;4.96;100.00
71567;BME280;59403;47.456;19.120;2022-11-15T01:32:36;100886.28;;;4.84;100.00
71567;BME280;59403;47.456;19.120;2022-11-15T01:35:04;100882.69;;;4.85;100.00
71567;BME280;59403;47.456;19.120;2022-11-15T01:37:32;100894.56;;;4.91;100.00
71567;BME280;59403;47.456;19.120;2022-11-15T01:39:59;100885.75;;;4.92;100.00
71567;BME280;59403;47.456;19.120;2022-11-15T01:42:26;100891.72;;;4.94;100.00
71567;BME280;59403;47.456;19.120;2022-11-15T01:44:53;100887.41;;;4.93;100.00
71567;BME280;59403;47.456;19.120;2022-11-15T01:47:22;100876.31;;;4.89;100.00
71567;BME280;59403;47.456;19.120;2022-11-15T01:49:54;100883.72;;;4.95;100.00
71567;BME280;59403;47.456;19.120;2022-11-15T01:52:25;100890.13;;;5.04;100.00
71567;BME280;59403;47.456;19.120;2022-11-15T01:54:57;100888.66;;;5.00;100.00
71567;BME280;59403;47.456;19.120;2022-11-15T01:57:25;100886.66;;;5.03;100.00
71567;BME280;59403;47.456;19.120;2022-11-15T01:59:53;100883.06;;;5.04;100.00
71567;BME280;59403;47.456;19.120;2022-11-15T05:52:46;100763.00;;;5.19;100.00
71567;BME280;59403;47.456;19.120;2022-11-15T06:04:21;100742.25;;;5.27;100.00
71567;BME280;59403;47.456;19.120;2022-11-15T06:06:51;100742.75;;;5.32;100.00
71567;BME280;59403;47.456;19.120;2022-11-15T06:09:36;100752.19;;;5.34;100.00
71567;BME280;59403;47.456;19.120;2022-11-15T06:12:04;100745.16;;;5.35;100.00
71567;BME280;59403;47.456;19.120;2022-11-15T06:14:45;100737.16;;;5.36;100.00
71567;BME280;59403;47.456;19.120;2022-11-15T06:17:13;100737.88;;;5.38;100.00
71567;BME280;59403;47.456;19.120;2022-11-15T06:19:54;100734.41;;;5.38;100.00
71567;BME280;59403;47.456;19.120;2022-11-15T06:29:27;100766.06;;;5.47;100.00
71567;BME280;59403;47.456;19.120;2022-11-15T06:31:54;100742.44;;;5.47;100.00
71567;BME280;59403;47.456;19.120;2022-11-15T06:34:21;100741.72;;;5.45;100.00
71567;BME280;59403;47.456;19.120;2022-11-15T06:36:48;100736.69;;;5.42;100.00
71567;BME280;59403;47.456;19.120;2022-11-15T06:39:15;100736.81;;;5.41;100.00
71567;BME280;59403;47.456;19.120;2022-11-15T06:41:42;100742.44;;;5.47;100.00
71567;BME280;59403;47.456;19.120;2022-11-15T06:44:25;100752.94;;;5.47;100.00
71567;BME280;59403;47.456;19.120;2022-11-15T06:46:54;100750.81;;;5.52;100.00
71567;BME280;59403;47.456;19.120;2022-11-15T06:49:24;100740.62;;;5.48;100.00
71567;BME280;59403;47.456;19.120;2022-11-15T06:51:53;100751.63;;;5.53;100.00
71567;BME280;59403;47.456;19.120;2022-11-15T06:54:21;100753.22;;;5.55;100.00
71567;BME280;59403;47.456;19.120;2022-11-15T06:56:47;100755.94;;;5.54;100.00
71567;BME280;59403;47.456;19.120;2022-11-15T06:59:17;100755.84;;;5.55;100.00
71567;BME280;59403;47.456;19.120;2022-11-15T07:01:45;100751.19;;;5.59;100.00
71567;BME280;59403;47.456;19.120;2022-11-15T07:04:12;100757.84;;;5.63;100.00
71567;BME280;59403;47.456;19.120;2022-11-15T07:06:39;100758.94;;;5.60;100.00
71567;BME280;59403;47.456;19.120;2022-11-15T07:09:06;100759.56;;;5.64;100.00
71567;BME280;59403;47.456;19.120;2022-11-15T07:11:33;100752.28;;;5.67;100.00
71567;BME280;59403;47.456;19.120;2022-11-15T07:14:00;100750.13;;;5.72;100.00
71567;BME280;59403;47.456;19.120;2022-11-15T07:16:27;100751.09;;;5.71;100.00
71567;BME280;59403;47.456;19.120;2022-11-15T07:18:55;100747.12;;;5.77;100.00
71567;BME280;59403;47.456;19.120;2022-11-15T07:21:22;100740.59;;;5.83;100.00
71567;BME280;59403;47.456;19.120;2022-11-15T07:23:49;100738.56;;;5.86;100.00
71567;BME280;59403;47.456;19.120;2022-11-15T07:26:16;100736.44;;;5.91;100.00
71567;BME280;59403;47.456;19.120;2022-11-15T07:28:44;100725.69;;;5.94;100.00
71567;BME280;59403;47.456;19.120;2022-11-15T07:31:10;100731.31;;;6.01;100.00
71567;BME280;59403;47.456;19.120;2022-11-15T07:33:37;100736.06;;;6.07;100.00
71567;BME280;59403;47.456;19.120;2022-11-15T07:36:07;100733.91;;;6.12;100.00
71567;BME280;59403;47.456;19.120;2022-11-15T07:38:34;100729.50;;;6.12;100.00
71567;BME280;59403;47.456;19.120;2022-11-15T07:41:04;100739.69;;;6.17;100.00
71567;BME280;59403;47.456;19.120;2022-11-15T07:43:31;100736.78;;;6.20;100.00
71567;BME280;59403;47.456;19.120;2022-11-15T07:46:03;100742.91;;;6.20;100.00
71567;BME280;59403;47.456;19.120;2022-11-15T07:48:31;100741.81;;;6.23;100.00
71567;BME280;59403;47.456;19.120;2022-11-15T07:50:58;100732.94;;;6.24;100.00
71567;BME280;59403;47.456;19.120;2022-11-15T07:53:26;100726.50;;;6.28;100.00
71567;BME280;59403;47.456;19.120;2022-11-15T07:55:54;100727.22;;;6.30;100.00
71567;BME280;59403;47.456;19.120;2022-11-15T07:58:21;100733.06;;;6.33;100.00
71567;BME280;59403;47.456;19.120;2022-11-15T08:00:47;100732.69;;;6.38;100.00
71567;BME280;59403;47.456;19.120;2022-11-15T08:03:16;100725.53;;;6.40;100.00
71567;BME280;59403;47.456;19.120;2022-11-15T08:05:50;100725.37;;;6.41;100.00
71567;BME280;59403;47.456;19.120;2022-11-15T08:08:17;100720.97;;;6.42;100.00
71567;BME280;59403;47.456;19.120;2022-11-15T08:10:45;100721.81;;;6.42;100.00
71567;BME280;59403;47.456;19.120;2022-11-15T08:13:13;100730.56;;;6.43;100.00
71567;BME280;59403;47.456;19.120;2022-11-15T08:15:40;100722.66;;;6.43;100.00
71567;BME280;59403;47.456;19.120;2022-11-15T08:18:10;100713.22;;;6.40;100.00
71567;BME280;59403;47.456;19.120;2022-11-15T08:20:38;100714.41;;;6.36;100.00
71567;BME280;59403;47.456;19.120;2022-11-15T08:23:05;100703.28;;;6.33;100.00
71567;BME280;59403;47.456;19.120;2022-11-15T08:25:33;100704.38;;;6.30;100.00
71567;BME280;59403;47.456;19.120;2022-11-15T08:28:04;100693.75;;;6.32;100.00
71567;BME280;59403;47.456;19.120;2022-11-15T08:30:34;100702.47;;;6.32;100.00
71567;BME280;59403;47.456;19.120;2022-11-15T08:33:02;100690.16;;;6.33;100.00
71567;BME280;59403;47.456;19.120;2022-11-15T08:35:30;100698.03;;;6.33;100.00
71567;BME280;59403;47.456;19.120;2022-11-15T08:37:57;100709.03;;;6.38;100.00
71567;BME280;59403;47.456;19.120;2022-11-15T08:40:24;100693.12;;;6.39;100.00
71567;BME280;59403;47.456;19.120;2022-11-15T08:42:52;100694.81;;;6.40;100.00
71567;BME280;59403;47.456;19.120;2022-11-15T08:45:20;100687.97;;;6.38;100.00
71567;BME280;59403;47.456;19.120;2022-11-15T08:47:47;100682.62;;;6.39;100.00
71567;BME280;59403;47.456;19.120;2022-11-15T08:50:15;100691.09;;;6.43;100.00
71567;BME280;59403;47.456;19.120;2022-11-15T08:52:42;100683.22;;;6.43;100.00
71567;BME280;59403;47.456;19.120;2022-11-15T08:55:09;100686.66;;;6.43;100.00
71567;BME280;59403;47.456;19.120;2022-11-15T08:57:36;100675.41;;;6.41;100.00
71567;BME280;59403;47.456;19.120;2022-11-15T09:00:04;100674.34;;;6.44;100.00
71567;BME280;59403;47.456;19.120;2022-11-15T09:02:32;100675.06;;;6.46;100.00
71567;BME280;59403;47.456;19.120;2022-11-15T09:04:59;100679.31;;;6.58;100.00
71567;BME280;59403;47.456;19.120;2022-11-15T09:07:26;100683.12;;;6.65;100.00
71567;BME280;59403;47.456;19.120;2022-11-15T09:09:57;100675.09;;;6.66;100.00
71567;BME280;59403;47.456;19.120;2022-11-15T09:12:24;100666.47;;;6.75;100.00
71567;BME280;59403;47.456;19.120;2022-11-15T09:14:51;100651.00;;;6.82;100.00
71567;BME280;59403;47.456;19.120;2022-11-15T09:17:18;100653.38;;;6.85;100.00
71567;BME280;59403;47.456;19.120;2022-11-15T09:19:46;100654.03;;;6.98;100.00
71567;BME280;59403;47.456;19.120;2022-11-15T09:22:13;100659.50;;;7.06;100.00
71567;BME280;59403;47.456;19.120;2022-11-15T09:24:40;100653.78;;;7.01;100.00
71567;BME280;59403;47.456;19.120;2022-11-15T09:27:07;100652.44;;;7.07;100.00
71567;BME280;59403;47.456;19.120;2022-11-15T09:29:34;100646.91;;;7.10;100.00
71567;BME280;59403;47.456;19.120;2022-11-15T09:32:01;100633.59;;;7.11;100.00
71567;BME280;59403;47.456;19.120;2022-11-15T09:34:28;100637.56;;;7.06;100.00
71567;BME280;59403;47.456;19.120;2022-11-15T09:36:56;100630.91;;;7.02;100.00
71567;BME280;59403;47.456;19.120;2022-11-15T09:39:23;100634.50;;;7.01;100.00
71567;BME280;59403;47.456;19.120;2022-11-15T09:45:10;100646.72;;;7.02;100.00
71567;BME280;59403;47.456;19.120;2022-11-15T09:48:03;100633.69;;;7.00;100.00
71567;BME280;59403;47.456;19.120;2022-11-15T09:50:37;100635.91;;;7.05;100.00
71567;BME280;59403;47.456;19.120;2022-11-15T09:53:11;100635.91;;;7.05;100.00
71567;BME280;59403;47.456;19.120;2022-11-15T09:55:47;100641.31;;;7.03;100.00
71567;BME280;59403;47.456;19.120;2022-11-15T09:58:22;100634.94;;;7.06;100.00
71567;BME280;59403;47.456;19.120;2022-11-15T10:00:51;100630.53;;;7.06;100.00
71567;BME280;59403;47.456;19.120;2022-11-15T10:05:52;100621.69;;;7.07;100.00
71567;BME280;59403;47.456;19.120;2022-11-15T10:08:35;100616.50;;;7.06;100.00
71567;BME280;59403;47.456;19.120;2022-11-15T10:11:07;100613.06;;;7.05;100.00
71567;BME280;59403;47.456;19.120;2022-11-15T10:13:36;100615.84;;;7.04;100.00
71567;BME280;59403;47.456;19.120;2022-11-15T10:16:18;100608.16;;;7.01;100.00
71567;BME280;59403;47.456;19.120;2022-11-15T10:18:52;100610.09;;;6.99;100.00
71567;BME280;59403;47.456;19.120;2022-11-15T10:21:24;100610.66;;;7.02;100.00
71567;BME280;59403;47.456;19.120;2022-11-15T10:23:55;100600.97;;;7.03;100.00
71567;BME280;59403;47.456;19.120;2022-11-15T10:26:23;100602.66;;;7.04;100.00
71567;BME280;59403;47.456;19.120;2022-11-15T10:28:57;100600.28;;;7.01;100.00
71567;BME280;59403;47.456;19.120;2022-11-15T10:31:25;100598.03;;;6.96;100.00
71567;BME280;59403;47.456;19.120;2022-11-15T10:36:45;100588.72;;;6.92;100.00
71567;BME280;59403;47.456;19.120;2022-11-15T10:39:14;100590.13;;;6.96;100.00
71567;BME280;59403;47.456;19.120;2022-11-15T10:41:42;100585.94;;;6.93;100.00
71567;BME280;59403;47.456;19.120;2022-11-15T10:44:25;100578.91;;;6.94;100.00
71567;BME280;59403;47.456;19.120;2022-11-15T10:47:20;100574.78;;;7.01;100.00
71567;BME280;59403;47.456;19.120;2022-11-15T10:49:59;100572.87;;;7.03;100.00
71567;BME280;59403;47.456;19.120;2022-11-15T10:52:27;100568.81;;;6.99;100.00
71567;BME280;59403;47.456;19.120;2022-11-15T10:54:59;100566.81;;;6.91;100.00
71567;BME280;59403;47.456;19.120;2022-11-15T10:57:31;100562.37;;;6.92;100.00
71567;BME280;59403;47.456;19.120;2022-11-15T11:00:01;100551.22;;;7.00;100.00
71567;BME280;59403;47.456;19.120;2022-11-15T11:02:33;100556.75;;;6.97;100.00
71567;BME280;59403;47.456;19.120;2022-11-15T11:05:02;100559.97;;;7.00;100.00
71567;BME280;59403;47.456;19.120;2022-11-15T11:07:30;100546.66;;;7.02;100.00
71567;BME280;59403;47.456;19.120;2022-11-15T11:10:02;100541.41;;;7.02;100.00
71567;BME280;59403;47.456;19.120;2022-11-15T11:12:31;100532.81;;;7.09;100.00
71567;BME280;59403;47.456;19.120;2022-11-15T11:14:59;100529.94;;;7.12;100.00
71567;BME280;59403;47.456;19.120;2022-11-15T11:17:37;100527.22;;;7.23;100.00
71567;BME280;59403;47.456;19.120;2022-11-15T11:20:17;100530.53;;;7.25;100.00
71567;BME280;59403;47.456;19.120;2022-11-15T11:23:00;100524.06;;;7.29;100.00
71567;BME280;59403;47.456;19.120;2022-11-15T11:25:34;100526.81;;;7.28;100.00
71567;BME280;59403;47.456;19.120;2022-11-15T11:28:14;100518.78;;;7.29;100.00
71567;BME280;59403;47.456;19.120;2022-11-15T11:30:47;100522.13;;;7.31;100.00
71567;BME280;59403;47.456;19.120;2022-11-15T11:33:21;100525.16;;;7.27;100.00
71567;BME280;59403;47.456;19.120;2022-11-15T11:36:01;100516.28;;;7.28;100.00
71567;BME280;59403;47.456;19.120;2022-11-15T11:38:38;100516.53;;;7.25;100.00
71567;BME280;59403;47.456;19.120;2022-11-15T11:41:17;100518.34;;;7.24;100.00
71567;BME280;59403;47.456;19.120;2022-11-15T11:43:56;100501.28;;;7.28;100.00
71567;BME280;59403;47.456;19.120;2022-11-15T11:46:38;100494.66;;;7.24;100.00
71567;BME280;59403;47.456;19.120;2022-11-15T11:49:15;100496.03;;;7.28;100.00
71567;BME280;59403;47.456;19.120;2022-11-15T11:51:47;100500.16;;;7.21;100.00
71567;BME280;59403;47.456;19.120;2022-11-15T11:54:20;100492.16;;;7.23;100.00
71567;BME280;59403;47.456;19.120;2022-11-15T11:56:52;100494.78;;;7.23;100.00
71567;BME280;59403;47.456;19.120;2022-11-15T11:59:27;100489.75;;;7.20;100.00
71567;BME280;59403;47.456;19.120;2022-11-15T12:01:56;100496.00;;;7.19;100.00
71567;BME280;59403;47.456;19.120;2022-11-15T12:04:29;100484.06;;;7.15;100.00
71567;BME280;59403;47.456;19.120;2022-11-15T12:07:00;100481.72;;;7.12;100.00
71567;BME280;59403;47.456;19.120;2022-11-15T12:09:32;100473.53;;;7.15;100.00
71567;BME280;59403;47.456;19.120;2022-11-15T12:12:06;100463.56;;;7.18;100.00
71567;BME280;59403;47.456;19.120;2022-11-15T12:14:40;100460.09;;;7.18;100.00
71567;BME280;59403;47.456;19.120;2022-11-15T12:17:10;100467.75;;;7.21;100.00
71567;BME280;59403;47.456;19.120;2022-11-15T12:19:37;100460.94;;;7.18;100.00
71567;BME280;59403;47.456;19.120;2022-11-15T12:22:10;100460.78;;;7.20;100.00
71567;BME280;59403;47.456;19.120;2022-11-15T12:24:43;100445.84;;;7.20;100.00
71567;BME280;59403;47.456;19.120;2022-11-15T12:27:17;100447.75;;;7.18;100.00
71567;BME280;59403;47.456;19.120;2022-11-15T12:29:47;100447.06;;;7.16;100.00
71567;BME280;59403;47.456;19.120;2022-11-15T12:32:25;100439.72;;;7.20;100.00
71567;BME280;59403;47.456;19.120;2022-11-15T12:34:53;100433.59;;;7.10;100.00
71567;BME280;59403;47.456;19.120;2022-11-15T12:40:19;100426.97;;;7.15;100.00
71567;BME280;59403;47.456;19.120;2022-11-15T12:43:00;100432.81;;;7.19;100.00
71567;BME280;59403;47.456;19.120;2022-11-15T12:45:30;100432.25;;;7.15;100.00
71567;BME280;59403;47.456;19.120;2022-11-15T12:54:52;100421.56;;;7.07;100.00
71567;BME280;59403;47.456;19.120;2022-11-15T12:57:41;100412.53;;;7.10;100.00
71567;BME280;59403;47.456;19.120;2022-11-15T13:03:28;100404.22;;;7.05;100.00
71567;BME280;59403;47.456;19.120;2022-11-15T13:06:08;100408.38;;;7.07;100.00
71567;BME280;59403;47.456;19.120;2022-11-15T13:08:47;100413.94;;;7.14;100.00
71567;BME280;59403;47.456;19.120;2022-11-15T13:11:48;100413.09;;;7.13;100.00
71567;BME280;59403;47.456;19.120;2022-11-15T13:14:44;100413.66;;;7.17;100.00
71567;BME280;59403;47.456;19.120;2022-11-15T13:17:33;100425.47;;;7.22;100.00
71567;BME280;59403;47.456;19.120;2022-11-15T13:20:21;100424.25;;;7.26;100.00
71567;BME280;59403;47.456;19.120;2022-11-15T13:22:50;100418.97;;;7.26;100.00
71567;BME280;59403;47.456;19.120;2022-11-15T13:25:26;100415.06;;;7.30;100.00
71567;BME280;59403;47.456;19.120;2022-11-15T13:27:54;100407.47;;;7.27;100.00
71567;BME280;59403;47.456;19.120;2022-11-15T13:30:25;100397.06;;;7.26;100.00
71567;BME280;59403;47.456;19.120;2022-11-15T13:32:53;100403.56;;;7.22;100.00
71567;BME280;59403;47.456;19.120;2022-11-15T13:35:23;100396.63;;;7.30;100.00
71567;BME280;59403;47.456;19.120;2022-11-15T13:37:52;100388.75;;;7.30;100.00
71567;BME280;59403;47.456;19.120;2022-11-15T13:40:23;100386.81;;;7.32;100.00
71567;BME280;59403;47.456;19.120;2022-11-15T13:42:53;100390.84;;;7.36;100.00
71567;BME280;59403;47.456;19.120;2022-11-15T13:45:20;100381.81;;;7.29;100.00
71567;BME280;59403;47.456;19.120;2022-11-15T13:47:58;100377.22;;;7.22;100.00
71567;BME280;59403;47.456;19.120;2022-11-15T13:50:31;100374.31;;;7.25;100.00
71567;BME280;59403;47.456;19.120;2022-11-15T13:53:02;100368.78;;;7.28;100.00
71567;BME280;59403;47.456;19.120;2022-11-15T13:55:31;100360.31;;;7.24;100.00
71567;BME280;59403;47.456;19.120;2022-11-15T13:58:01;100366.53;;;7.23;100.00
71567;BME280;59403;47.456;19.120;2022-11-15T14:00:35;100366.78;;;7.11;100.00
71567;BME280;59403;47.456;19.120;2022-11-15T14:03:11;100360.00;;;7.18;100.00
71567;BME280;59403;47.456;19.120;2022-11-15T14:05:43;100368.06;;;7.16;100.00
71567;BME280;59403;47.456;19.120;2022-11-15T14:08:22;100362.78;;;7.16;100.00
71567;BME280;59403;47.456;19.120;2022-11-15T14:11:14;100364.47;;;7.17;100.00
71567;BME280;59403;47.456;19.120;2022-11-15T14:13:57;100354.19;;;7.14;100.00
71567;BME280;59403;47.456;19.120;2022-11-15T14:16:33;100351.12;;;7.09;100.00
71567;BME280;59403;47.456;19.120;2022-11-15T14:19:01;100343.38;;;6.98;100.00
71567;BME280;59403;47.456;19.120;2022-11-15T14:21:30;100343.94;;;7.02;100.00
71567;BME280;59403;47.456;19.120;2022-11-15T14:24:14;100344.63;;;7.04;100.00
71567;BME280;59403;47.456;19.120;2022-11-15T14:26:44;100341.44;;;7.00;100.00
71567;BME280;59403;47.456;19.120;2022-11-15T14:29:24;100336.00;;;6.92;100.00
71567;BME280;59403;47.456;19.120;2022-11-15T14:31:51;100330.22;;;6.98;100.00
71567;BME280;59403;47.456;19.120;2022-11-15T14:34:18;100337.25;;;6.98;100.00
71567;BME280;59403;47.456;19.120;2022-11-15T14:36:51;100329.38;;;6.98;100.00
71567;BME280;59403;47.456;19.120;2022-11-15T14:39:18;100324.09;;;6.98;100.00
71567;BME280;59403;47.456;19.120;2022-11-15T14:41:45;100315.63;;;6.94;100.00
71567;BME280;59403;47.456;19.120;2022-11-15T14:46:40;100303.28;;;6.85;100.00
71567;BME280;59403;47.456;19.120;2022-11-15T14:49:07;100304.28;;;6.93;100.00
71567;BME280;59403;47.456;19.120;2022-11-15T14:51:34;100312.03;;;6.95;100.00
71567;BME280;59403;47.456;19.120;2022-11-15T14:54:03;100309.41;;;6.95;100.00
71567;BME280;59403;47.456;19.120;2022-11-15T14:56:29;100299.84;;;6.94;100.00
71567;BME280;59403;47.456;19.120;2022-11-15T14:58:56;100299.53;;;6.78;100.00
71567;BME280;59403;47.456;19.120;2022-11-15T15:01:25;100298.88;;;6.85;100.00
71567;BME280;59403;47.456;19.120;2022-11-15T15:03:52;100304.84;;;6.87;100.00
71567;BME280;59403;47.456;19.120;2022-11-15T15:06:22;100304.69;;;6.89;100.00
71567;BME280;59403;47.456;19.120;2022-11-15T15:08:49;100299.72;;;6.86;100.00
71567;BME280;59403;47.456;19.120;2022-11-15T15:11:20;100307.03;;;6.92;100.00
71567;BME280;59403;47.456;19.120;2022-11-15T15:13:48;100308.72;;;6.93;100.00
71567;BME280;59403;47.456;19.120;2022-11-15T15:16:15;100304.28;;;6.93;100.00
71567;BME280;59403;47.456;19.120;2022-11-15T15:18:42;100296.50;;;6.92;100.00
71567;BME280;59403;47.456;19.120;2022-11-15T15:21:17;100290.97;;;6.85;100.00
71567;BME280;59403;47.456;19.120;2022-11-15T15:23:46;100284.87;;;6.85;100.00
71567;BME280;59403;47.456;19.120;2022-11-15T15:26:12;100281.84;;;6.89;100.00
71567;BME280;59403;47.456;19.120;2022-11-15T15:28:41;100283.63;;;6.89;100.00
71567;BME280;59403;47.456;19.120;2022-11-15T15:31:09;100291.09;;;6.93;100.00
71567;BME280;59403;47.456;19.120;2022-11-15T15:33:36;100289.47;;;6.93;100.00
71567;BME280;59403;47.456;19.120;2022-11-15T15:36:04;100295.41;;;6.95;100.00
71567;BME280;59403;47.456;19.120;2022-11-15T15:38:33;100302.47;;;6.94;100.00
71567;BME280;59403;47.456;19.120;2022-11-15T15:41:00;100303.56;;;6.91;100.00
71567;BME280;59403;47.456;19.120;2022-11-15T15:43:31;100295.00;;;6.89;100.00
71567;BME280;59403;47.456;19.120;2022-11-15T15:46:01;100299.44;;;6.89;100.00
71567;BME280;59403;47.456;19.120;2022-11-15T15:48:28;100297.50;;;6.91;100.00
71567;BME280;59403;47.456;19.120;2022-11-15T15:50:58;100301.22;;;6.88;100.00
71567;BME280;59403;47.456;19.120;2022-11-15T15:53:26;100302.63;;;6.93;100.00
71567;BME280;59403;47.456;19.120;2022-11-15T15:55:53;100293.31;;;6.88;100.00
71567;BME280;59403;47.456;19.120;2022-11-15T15:58:22;100285.84;;;6.84;100.00
71567;BME280;59403;47.456;19.120;2022-11-15T16:00:49;100289.84;;;6.88;100.00
71567;BME280;59403;47.456;19.120;2022-11-15T16:03:17;100276.69;;;6.88;100.00
71567;BME280;59403;47.456;19.120;2022-11-15T16:05:44;100269.34;;;6.91;100.00
71567;BME280;59403;47.456;19.120;2022-11-15T16:08:17;100277.25;;;6.91;100.00
71567;BME280;59403;47.456;19.120;2022-11-15T16:10:46;100268.78;;;6.88;100.00
71567;BME280;59403;47.456;19.120;2022-11-15T16:13:13;100269.62;;;6.88;100.00
71567;BME280;59403;47.456;19.120;2022-11-15T16:15:40;100276.44;;;6.91;100.00
71567;BME280;59403;47.456;19.120;2022-11-15T16:18:14;100279.78;;;6.93;100.00
71567;BME280;59403;47.456;19.120;2022-11-15T16:20:44;100265.22;;;6.89;100.00
71567;BME280;59403;47.456;19.120;2022-11-15T16:23:13;100263.53;;;6.88;100.00
71567;BME280;59403;47.456;19.120;2022-11-15T16:25:43;100276.28;;;6.93;100.00
71567;BME280;59403;47.456;19.120;2022-11-15T16:28:21;100274.63;;;6.91;100.00
71567;BME280;59403;47.456;19.120;2022-11-15T16:30:49;100271.97;;;6.91;100.00
71567;BME280;59403;47.456;19.120;2022-11-15T16:33:16;100276.28;;;6.93;100.00
71567;BME280;59403;47.456;19.120;2022-11-15T16:35:47;100271.88;;;6.93;100.00
71567;BME280;59403;47.456;19.120;2022-11-15T16:38:15;100273.38;;;6.96;100.00
71567;BME280;59403;47.456;19.120;2022-11-15T16:40:42;100270.75;;;6.96;100.00
71567;BME280;59403;47.456;19.120;2022-11-15T16:43:09;100274.22;;;6.96;100.00
71567;BME280;59403;47.456;19.120;2022-11-15T16:45:38;100275.88;;;6.97;100.00
71567;BME280;59403;47.456;19.120;2022-11-15T16:48:05;100269.91;;;6.95;100.00
71567;BME280;59403;47.456;19.120;2022-11-15T16:50:36;100264.94;;;6.92;100.00
71567;BME280;59403;47.456;19.120;2022-11-15T16:53:10;100257.72;;;6.94;100.00
71567;BME280;59403;47.456;19.120;2022-11-15T16:55:45;100253.00;;;6.88;100.00
71567;BME280;59403;47.456;19.120;2022-11-15T16:58:15;100255.09;;;6.94;100.00
71567;BME280;59403;47.456;19.120;2022-11-15T17:00:42;100244.44;;;6.96;100.00
71567;BME280;59403;47.456;19.120;2022-11-15T17:03:09;100237.34;;;6.86;100.00
71567;BME280;59403;47.456;19.120;2022-11-15T17:05:36;100245.56;;;6.93;100.00
71567;BME280;59403;47.456;19.120;2022-11-15T17:08:03;100243.31;;;6.88;100.00
71567;BME280;59403;47.456;19.120;2022-11-15T17:10:33;100247.19;;;6.94;100.00
71567;BME280;59403;47.456;19.120;2022-11-15T17:13:00;100248.84;;;6.95;100.00
71567;BME280;59403;47.456;19.120;2022-11-15T17:15:27;100235.03;;;6.93;100.00
71567;BME280;59403;47.456;19.120;2022-11-15T17:17:54;100243.59;;;6.95;100.00
71567;BME280;59403;47.456;19.120;2022-11-15T17:20:22;100241.78;;;6.96;100.00
71567;BME280;59403;47.456;19.120;2022-11-15T17:22:50;100243.59;;;6.95;100.00
71567;BME280;59403;47.456;19.120;2022-11-15T17:25:19;100237.22;;;6.98;100.00
71567;BME280;59403;47.456;19.120;2022-11-15T17:27:48;100231.41;;;6.94;100.00